Terminal Aerodrome Forecast
Issued by NWS

Home | Current Version | Previous Version | Text Only | Print | Product List | Glossary On
Versions: 1 2 3 4 5 6 7 8 9 10 11 12 13 14
734
FTUS42 KTAE 291120
TAFABY
TAF
KABY 291120Z 2912/3012 25007KT P6SM SCT025 BKN250
     FM291600 24008G13KT 6SM -SHRA VCTS BKN040CB
     FM292200 26007G12KT P6SM BKN050
     FM300300 26005KT P6SM BKN040=

USA.gov is the U.S. government's official web portal to all federal, state and local government web resources and services.